createdAt,value
2022-09-12T00:01:16.242Z,53.24
2022-09-12T00:04:01.147Z,52.82
2022-09-12T00:06:45.979Z,53.21
2022-09-12T00:09:30.944Z,52.64
2022-09-12T00:12:15.740Z,52.50
2022-09-12T00:15:00.575Z,52.98
2022-09-12T00:17:45.435Z,53.43
2022-09-12T00:20:30.195Z,53.18
2022-09-12T00:23:15.011Z,53.29
2022-09-12T00:25:59.694Z,52.61
2022-09-12T00:28:44.632Z,52.29
2022-09-12T00:31:29.572Z,51.56
2022-09-12T00:34:14.841Z,50.79
2022-09-12T00:36:59.674Z,50.57
2022-09-12T00:39:44.370Z,49.96
2022-09-12T00:42:29.234Z,49.99
2022-09-12T00:45:13.991Z,49.80
2022-09-12T00:47:58.849Z,50.19
2022-09-12T00:50:43.622Z,50.40
2022-09-12T00:53:28.367Z,50.38
2022-09-12T00:56:13.251Z,50.12
2022-09-12T00:58:58.050Z,50.12
2022-09-12T01:01:42.871Z,49.72
2022-09-12T01:04:28.110Z,49.61
2022-09-12T01:07:12.864Z,49.15
2022-09-12T01:09:57.618Z,49.34
2022-09-12T01:12:42.430Z,49.00
2022-09-12T01:15:27.330Z,49.64
2022-09-12T01:18:12.120Z,50.09
2022-09-12T01:20:56.881Z,50.22
2022-09-12T01:23:41.639Z,50.17
2022-09-12T01:26:26.555Z,50.25
2022-09-12T01:29:11.322Z,49.82
2022-09-12T01:31:56.296Z,49.25
2022-09-12T01:34:41.025Z,49.66
2022-09-12T01:37:25.702Z,49.14
2022-09-12T01:40:10.466Z,48.77
2022-09-12T01:42:55.733Z,48.33
2022-09-12T01:45:40.459Z,48.59
2022-09-12T01:48:25.347Z,48.23
2022-09-12T01:51:10.140Z,48.55
2022-09-12T01:53:54.844Z,47.44
2022-09-12T01:56:39.542Z,47.00
2022-09-12T01:59:24.253Z,47.00
2022-09-12T02:02:08.994Z,46.94
2022-09-12T02:04:53.606Z,46.49
2022-09-12T02:07:38.419Z,46.76
2022-09-12T02:10:23.201Z,46.87
2022-09-12T02:13:07.879Z,46.76
2022-09-12T02:15:52.564Z,47.12
2022-09-12T02:18:37.256Z,47.76
2022-09-12T02:21:21.993Z,48.33
2022-09-12T02:24:06.882Z,49.08
2022-09-12T02:26:51.527Z,49.61
2022-09-12T02:29:36.201Z,49.19
2022-09-12T02:32:21.033Z,49.61
2022-09-12T02:35:05.798Z,50.47
2022-09-12T02:37:50.674Z,50.18
2022-09-12T02:40:35.316Z,49.35
2022-09-12T02:43:20.187Z,49.17
2022-09-12T02:46:04.892Z,49.21
2022-09-12T02:48:49.634Z,49.44
2022-09-12T02:51:34.431Z,49.15
2022-09-12T02:54:19.285Z,49.14
2022-09-12T02:57:04.086Z,48.70
2022-09-12T02:59:48.673Z,48.30
2022-09-12T03:02:33.366Z,48.07
2022-09-12T03:05:18.074Z,47.25
2022-09-12T03:08:03.008Z,46.65
2022-09-12T03:10:47.607Z,46.75
2022-09-12T03:13:32.347Z,46.65
2022-09-12T03:16:17.202Z,46.96
2022-09-12T03:19:02.059Z,46.31
2022-09-12T03:21:46.808Z,46.11
2022-09-12T03:24:31.584Z,45.83
2022-09-12T03:27:16.329Z,46.59
2022-09-12T03:30:01.098Z,46.60
2022-09-12T03:32:45.966Z,46.94
2022-09-12T03:35:30.759Z,46.13
2022-09-12T03:38:15.589Z,46.17
2022-09-12T03:41:00.321Z,46.80
2022-09-12T03:43:45.244Z,46.45
2022-09-12T03:46:29.903Z,46.47
2022-09-12T03:49:14.750Z,46.00
2022-09-12T03:51:59.491Z,45.76
2022-09-12T03:54:44.207Z,45.83
2022-09-12T03:57:28.835Z,45.72
2022-09-12T04:00:17.711Z,46.01
2022-09-12T04:03:04.493Z,45.73
2022-09-12T04:05:49.248Z,45.88
2022-09-12T04:08:34.020Z,46.73
2022-09-12T04:11:18.900Z,46.72
2022-09-12T04:14:03.558Z,47.03
2022-09-12T04:16:48.350Z,46.80
2022-09-12T04:19:32.895Z,45.75
2022-09-12T04:22:17.615Z,45.81
2022-09-12T04:25:02.249Z,43.88
2022-09-12T04:27:47.067Z,43.49
2022-09-12T04:30:31.953Z,43.51
2022-09-12T04:33:16.610Z,43.93
2022-09-12T04:36:01.332Z,44.47
2022-09-12T04:38:46.297Z,44.15
2022-09-12T04:41:31.491Z,43.69
2022-09-12T04:44:16.072Z,43.50
2022-09-12T04:47:00.945Z,43.66
2022-09-12T04:49:45.684Z,43.41
2022-09-12T04:52:30.480Z,43.18
2022-09-12T04:55:15.292Z,43.54
2022-09-12T04:58:00.056Z,43.45
2022-09-12T05:00:44.857Z,43.88
2022-09-12T05:03:29.617Z,43.64
2022-09-12T05:06:14.413Z,43.22
2022-09-12T05:08:59.265Z,43.21
2022-09-12T05:14:48.954Z,43.61
2022-09-12T05:17:33.586Z,43.49
2022-09-12T05:20:18.412Z,43.66
2022-09-12T05:23:03.210Z,43.62
2022-09-12T05:25:47.994Z,43.03
2022-09-12T05:28:32.719Z,43.43
2022-09-12T05:31:17.410Z,42.50
2022-09-12T05:34:02.103Z,43.00
2022-09-12T05:36:46.902Z,43.65
2022-09-12T05:39:31.700Z,43.13
2022-09-12T05:42:16.656Z,42.39
2022-09-12T05:45:01.534Z,42.57
2022-09-12T05:47:46.218Z,42.17
2022-09-12T05:50:31.083Z,41.99
2022-09-12T05:53:15.767Z,41.85
2022-09-12T05:56:00.469Z,42.56
2022-09-12T05:58:45.153Z,41.97
2022-09-12T06:01:30.054Z,42.00
2022-09-12T06:04:14.758Z,42.96
2022-09-12T06:06:59.568Z,43.49
2022-09-12T06:09:44.354Z,43.86
2022-09-12T06:12:29.196Z,43.75
2022-09-12T06:15:14.035Z,43.74
2022-09-12T06:17:58.983Z,43.80
2022-09-12T06:20:43.865Z,42.77
2022-09-12T06:23:28.634Z,40.86
2022-09-12T06:26:13.362Z,40.54
2022-09-12T06:28:58.029Z,35.68
2022-09-12T06:31:42.806Z,29.21
2022-09-12T06:34:27.498Z,26.42
2022-09-12T06:37:12.436Z,23.76
2022-09-12T06:39:57.216Z,22.74
2022-09-12T06:42:41.982Z,20.48
2022-09-12T06:45:26.871Z,19.26
2022-09-12T06:48:11.662Z,17.40
2022-09-12T06:50:56.370Z,15.11
2022-09-12T06:53:41.241Z,16.61
2022-09-12T06:56:26.139Z,15.19
2022-09-12T06:59:10.946Z,14.79
2022-09-12T07:01:55.930Z,14.36
2022-09-12T07:04:41.223Z,15.01
2022-09-12T07:07:26.023Z,15.04
2022-09-12T07:10:10.723Z,12.04
2022-09-12T07:12:55.431Z,13.54
2022-09-12T07:15:40.196Z,12.40
2022-09-12T07:18:24.884Z,12.77
2022-09-12T07:21:09.743Z,12.66
2022-09-12T07:23:54.488Z,13.31
2022-09-12T07:26:39.386Z,13.21
2022-09-12T07:29:39.291Z,14.34
2022-09-12T07:32:24.432Z,17.17
2022-09-12T07:35:09.152Z,16.37
2022-09-12T07:37:53.887Z,20.56
2022-09-12T07:40:38.655Z,21.95
2022-09-12T07:43:23.410Z,23.12
2022-09-12T07:46:08.176Z,22.80
2022-09-12T07:48:52.836Z,24.18
2022-09-12T07:51:37.557Z,23.83
2022-09-12T07:54:22.237Z,24.47
2022-09-12T07:57:07.037Z,26.79
2022-09-12T07:59:53.228Z,24.52
2022-09-12T08:02:38.719Z,25.47
2022-09-12T08:05:23.365Z,25.79
2022-09-12T08:08:08.083Z,24.96
2022-09-12T08:10:52.938Z,25.39
2022-09-12T08:13:37.532Z,26.92
2022-09-12T08:16:22.260Z,26.68
2022-09-12T08:19:06.935Z,25.39
2022-09-12T08:21:51.873Z,26.24
2022-09-12T08:24:36.535Z,24.43
2022-09-12T08:27:21.346Z,26.25
2022-09-12T08:30:05.946Z,26.29
2022-09-12T08:32:50.752Z,27.27
2022-09-12T08:35:35.529Z,26.78
2022-09-12T08:38:20.338Z,26.59
2022-09-12T08:41:05.185Z,26.03
2022-09-12T08:43:52.047Z,27.02
2022-09-12T08:46:39.852Z,29.41
2022-09-12T08:49:24.816Z,26.92
2022-09-12T08:52:09.538Z,28.17
2022-09-12T08:54:54.327Z,27.50
2022-09-12T08:57:39.067Z,28.32
2022-09-12T09:00:23.837Z,26.60
2022-09-12T09:03:08.504Z,27.33
2022-09-12T09:05:53.211Z,28.00
2022-09-12T09:08:37.862Z,26.45
2022-09-12T09:11:22.744Z,29.18
2022-09-12T09:14:07.304Z,27.71
2022-09-12T09:16:52.206Z,28.05
2022-09-12T09:19:36.923Z,27.92
2022-09-12T09:22:21.896Z,27.96
2022-09-12T09:25:06.926Z,28.82
2022-09-12T09:27:51.615Z,29.07
2022-09-12T09:30:36.458Z,28.59
2022-09-12T09:33:21.037Z,27.96
2022-09-12T09:36:05.879Z,28.71
2022-09-12T09:38:50.598Z,27.17
2022-09-12T09:41:35.467Z,27.77
2022-09-12T09:44:20.162Z,27.84
2022-09-12T09:47:04.914Z,29.63
2022-09-12T09:49:49.644Z,27.74
2022-09-12T09:52:34.283Z,28.20
2022-09-12T09:55:19.202Z,28.79
2022-09-12T09:58:03.900Z,28.59
2022-09-12T10:00:48.770Z,27.97
2022-09-12T10:03:33.419Z,29.94
2022-09-12T10:06:18.198Z,28.78
2022-09-12T10:09:02.957Z,29.65
2022-09-12T10:11:47.876Z,29.29
2022-09-12T10:14:32.642Z,29.52
2022-09-12T10:17:17.303Z,28.08
2022-09-12T10:20:20.541Z,29.24
2022-09-12T10:23:06.709Z,29.54
2022-09-12T10:25:51.486Z,30.16
2022-09-12T10:28:36.356Z,28.23
2022-09-12T10:31:21.175Z,28.99
2022-09-12T10:34:05.941Z,29.21
2022-09-12T10:36:50.614Z,27.73
2022-09-12T10:39:35.455Z,29.01
2022-09-12T10:42:23.369Z,29.01
2022-09-12T10:45:08.540Z,29.67
2022-09-12T10:47:53.428Z,29.76
2022-09-12T10:50:38.198Z,28.93
2022-09-12T10:53:23.071Z,29.08
2022-09-12T10:56:07.839Z,29.01
2022-09-12T10:58:52.724Z,31.05
2022-09-12T11:01:37.543Z,29.46
2022-09-12T11:04:22.295Z,29.82
2022-09-12T11:07:06.911Z,29.61
2022-09-12T11:09:51.762Z,29.17
2022-09-12T11:12:36.594Z,29.05
2022-09-12T11:15:21.456Z,29.42
2022-09-12T11:18:06.378Z,29.49
2022-09-12T11:20:51.167Z,30.21
2022-09-12T11:23:36.141Z,28.75
2022-09-12T11:26:21.314Z,29.94
2022-09-12T11:29:06.138Z,29.88
2022-09-12T11:31:50.831Z,30.31
2022-09-12T11:34:35.647Z,29.64
2022-09-12T11:37:20.337Z,28.33
2022-09-12T11:40:05.139Z,28.26
2022-09-12T11:42:49.886Z,28.81
2022-09-12T11:45:34.683Z,28.15
2022-09-12T11:48:19.421Z,27.53
2022-09-12T11:51:04.153Z,27.63
2022-09-12T11:53:48.948Z,27.29
2022-09-12T11:56:33.585Z,27.71
2022-09-12T11:59:18.598Z,27.51
2022-09-12T12:02:03.323Z,27.76
2022-09-12T12:04:48.012Z,28.39
2022-09-12T12:07:32.752Z,27.47
2022-09-12T12:10:18.062Z,26.92
2022-09-12T12:13:02.841Z,28.05
2022-09-12T12:15:47.678Z,27.13
2022-09-12T12:18:32.475Z,28.18
2022-09-12T12:21:17.268Z,27.66
2022-09-12T12:24:02.068Z,27.40
2022-09-12T12:26:46.779Z,28.26
2022-09-12T12:29:31.584Z,27.96
2022-09-12T12:32:16.351Z,28.55
2022-09-12T12:35:01.268Z,27.87
2022-09-12T12:37:45.930Z,27.44
2022-09-12T12:40:30.860Z,27.55
2022-09-12T12:43:15.630Z,28.89
2022-09-12T12:46:00.585Z,27.46
2022-09-12T12:48:45.395Z,26.72
2022-09-12T12:51:30.301Z,24.88
2022-09-12T12:54:15.136Z,28.17
2022-09-12T12:56:59.825Z,26.55
2022-09-12T12:59:44.582Z,26.29
2022-09-12T13:02:29.331Z,25.41
2022-09-12T13:05:14.114Z,27.17
2022-09-12T13:07:58.756Z,28.02
2022-09-12T13:10:46.829Z,28.17
2022-09-12T13:13:33.337Z,25.48
2022-09-12T13:16:18.121Z,23.62
2022-09-12T13:19:03.198Z,27.95
2022-09-12T13:21:48.096Z,26.57
2022-09-12T13:24:32.749Z,26.89
2022-09-12T13:27:17.627Z,27.81
2022-09-12T13:30:02.430Z,27.26
2022-09-12T13:32:47.239Z,26.50
2022-09-12T13:35:31.903Z,26.64
2022-09-12T13:38:16.611Z,26.50
2022-09-12T13:41:01.295Z,26.76
2022-09-12T13:43:46.088Z,28.50
2022-09-12T13:46:30.805Z,27.38
2022-09-12T13:49:16.033Z,25.82
2022-09-12T13:52:00.709Z,25.06
2022-09-12T13:54:45.432Z,25.66
2022-09-12T13:57:30.331Z,27.78
2022-09-12T14:00:15.115Z,27.95
2022-09-12T14:02:59.906Z,26.37
2022-09-12T14:05:44.649Z,27.17
2022-09-12T14:08:29.349Z,27.27
2022-09-12T14:11:14.011Z,27.06
2022-09-12T14:13:58.811Z,28.74
2022-09-12T14:16:43.672Z,28.76
2022-09-12T14:19:28.422Z,29.09
2022-09-12T14:22:13.161Z,28.25
2022-09-12T14:24:57.886Z,28.39
2022-09-12T14:27:42.730Z,27.97
2022-09-12T14:30:27.537Z,28.62
2022-09-12T14:33:12.427Z,28.33
2022-09-12T14:35:57.097Z,28.85
2022-09-12T14:38:41.987Z,28.70
2022-09-12T14:41:27.074Z,27.58
2022-09-12T14:44:11.981Z,28.31
2022-09-12T14:46:56.832Z,28.21
2022-09-12T14:49:41.496Z,28.88
2022-09-12T14:52:26.309Z,28.42
2022-09-12T14:55:11.035Z,29.52
2022-09-12T14:57:55.817Z,29.32
2022-09-12T15:00:40.513Z,28.60
2022-09-12T15:03:25.376Z,28.13
2022-09-12T15:06:10.033Z,28.33
2022-09-12T15:08:54.737Z,28.68
2022-09-12T15:11:39.509Z,29.21
2022-09-12T15:14:24.336Z,29.71
2022-09-12T15:17:09.140Z,29.82
2022-09-12T15:19:53.898Z,28.87
2022-09-12T15:22:38.677Z,26.84
2022-09-12T15:25:23.365Z,27.05
2022-09-12T15:28:08.134Z,27.65
2022-09-12T15:30:52.883Z,28.01
2022-09-12T15:33:37.689Z,28.69
2022-09-12T15:36:22.243Z,28.85
2022-09-12T15:39:07.084Z,27.85
2022-09-12T15:41:51.809Z,26.62
2022-09-12T15:44:36.606Z,26.89
2022-09-12T15:47:21.254Z,27.38
2022-09-12T15:50:06.132Z,27.40
2022-09-12T15:52:52.072Z,27.75
2022-09-12T15:55:37.189Z,29.13
2022-09-12T15:58:21.856Z,30.64
2022-09-12T16:01:06.544Z,31.09
2022-09-12T16:03:51.290Z,31.00
2022-09-12T16:06:37.417Z,31.91
2022-09-12T16:09:22.244Z,29.93
2022-09-12T16:12:06.999Z,28.02
2022-09-12T16:14:51.856Z,28.08
2022-09-12T16:17:36.566Z,28.48
2022-09-12T16:20:21.333Z,29.75
2022-09-12T16:23:06.235Z,30.06
2022-09-12T16:25:50.945Z,29.82
2022-09-12T16:28:35.669Z,28.40
2022-09-12T16:31:20.447Z,28.46
2022-09-12T16:34:05.214Z,29.27
2022-09-12T16:36:49.914Z,27.56
2022-09-12T16:39:34.548Z,27.65
2022-09-12T16:42:19.318Z,28.71
2022-09-12T16:45:03.965Z,28.56
2022-09-12T16:47:48.815Z,27.82
2022-09-12T16:50:33.375Z,28.22
2022-09-12T16:53:18.114Z,29.01
2022-09-12T16:56:02.817Z,30.60
2022-09-12T16:58:47.544Z,30.92
2022-09-12T17:01:32.632Z,30.23
2022-09-12T17:04:20.601Z,30.77
2022-09-12T17:07:07.808Z,29.18
2022-09-12T17:09:52.607Z,29.89
2022-09-12T17:12:37.463Z,29.62
2022-09-12T17:15:22.203Z,29.57
2022-09-12T17:18:06.931Z,29.70
2022-09-12T17:20:51.775Z,29.45
2022-09-12T17:23:36.672Z,29.86
2022-09-12T17:26:21.390Z,29.80
2022-09-12T17:29:06.143Z,30.18
2022-09-12T17:31:50.993Z,30.92
2022-09-12T17:34:35.733Z,32.01
2022-09-12T17:37:20.515Z,30.67
2022-09-12T17:40:05.281Z,30.09
2022-09-12T17:42:50.058Z,30.45
2022-09-12T17:45:34.735Z,30.37
2022-09-12T17:48:19.553Z,30.42
2022-09-12T17:51:04.383Z,30.21
2022-09-12T17:53:49.216Z,31.58
2022-09-12T17:56:34.050Z,31.15
2022-09-12T17:59:18.838Z,30.94
2022-09-12T18:02:03.712Z,31.11
2022-09-12T18:04:48.346Z,31.71
2022-09-12T18:07:33.273Z,33.41
2022-09-12T18:10:18.024Z,32.60
2022-09-12T18:13:02.745Z,31.56
2022-09-12T18:15:47.369Z,31.99
2022-09-12T18:18:32.197Z,31.43
2022-09-12T18:21:17.021Z,31.52
2022-09-12T18:24:01.761Z,31.53
2022-09-12T18:26:46.562Z,32.12
2022-09-12T18:29:31.804Z,31.95
2022-09-12T18:32:16.909Z,34.02
2022-09-12T18:35:01.671Z,32.94
2022-09-12T18:37:46.462Z,31.87
2022-09-12T18:40:31.073Z,32.53
2022-09-12T18:43:15.936Z,33.67
2022-09-12T18:46:00.702Z,32.53
2022-09-12T18:48:45.591Z,32.94
2022-09-12T18:51:30.344Z,33.56
2022-09-12T18:54:14.968Z,32.41
2022-09-12T18:56:59.797Z,32.07
2022-09-12T18:59:44.564Z,32.55
2022-09-12T19:02:30.510Z,33.06
2022-09-12T19:05:15.158Z,33.15
2022-09-12T19:07:59.879Z,34.76
2022-09-12T19:10:44.595Z,34.23
2022-09-12T19:13:29.366Z,32.67
2022-09-12T19:16:14.103Z,32.58
2022-09-12T19:18:58.881Z,32.99
2022-09-12T19:21:43.811Z,35.06
2022-09-12T19:24:28.605Z,32.70
2022-09-12T19:27:13.512Z,32.50
2022-09-12T19:29:58.324Z,33.04
2022-09-12T19:32:43.067Z,33.14
2022-09-12T19:35:27.748Z,33.13
2022-09-12T19:38:12.588Z,32.69
2022-09-12T19:40:57.373Z,33.02
2022-09-12T19:43:42.122Z,32.80
2022-09-12T19:46:27.535Z,32.88
2022-09-12T19:49:12.175Z,33.39
2022-09-12T19:51:57.093Z,33.69
2022-09-12T19:54:41.830Z,33.61
2022-09-12T19:57:26.612Z,33.14
2022-09-12T20:00:11.296Z,33.83
2022-09-12T20:02:56.042Z,33.16
2022-09-12T20:05:42.747Z,33.47
2022-09-12T20:08:27.847Z,33.48
2022-09-12T20:11:12.567Z,34.02
2022-09-12T20:13:57.361Z,33.51
2022-09-12T20:16:42.229Z,33.42
2022-09-12T20:19:26.997Z,34.25
2022-09-12T20:22:11.934Z,34.58
2022-09-12T20:24:56.581Z,34.35
2022-09-12T20:27:41.380Z,33.92
2022-09-12T20:30:26.130Z,34.26
2022-09-12T20:33:10.913Z,34.95
2022-09-12T20:35:55.686Z,34.94
2022-09-12T20:38:40.478Z,34.62
2022-09-12T20:41:25.261Z,34.44
2022-09-12T20:44:10.061Z,34.65
2022-09-12T20:46:54.839Z,34.60
2022-09-12T20:49:39.482Z,34.69
2022-09-12T20:52:24.170Z,34.60
2022-09-12T20:55:08.851Z,34.15
2022-09-12T20:57:53.579Z,34.74
2022-09-12T21:00:38.283Z,34.57
2022-09-12T21:03:23.041Z,34.76
2022-09-12T21:06:07.747Z,34.67
2022-09-12T21:08:52.353Z,35.60
2022-09-12T21:11:37.267Z,35.04
2022-09-12T21:14:22.036Z,34.98
2022-09-12T21:17:06.835Z,34.28
2022-09-12T21:19:51.527Z,32.71
2022-09-12T21:22:36.309Z,33.11
2022-09-12T21:25:20.889Z,33.71
2022-09-12T21:28:05.759Z,34.25
2022-09-12T21:30:50.519Z,34.28
2022-09-12T21:33:35.160Z,34.68
2022-09-12T21:36:19.878Z,34.65
2022-09-12T21:39:04.649Z,34.83
2022-09-12T21:41:49.418Z,34.60
2022-09-12T21:44:34.155Z,34.53
2022-09-12T21:47:19.169Z,34.03
2022-09-12T21:50:03.979Z,33.54
2022-09-12T21:52:48.669Z,33.77
2022-09-12T21:55:33.343Z,33.99
2022-09-12T21:58:18.173Z,33.80
2022-09-12T22:01:02.891Z,33.80
2022-09-12T22:03:47.674Z,33.63
2022-09-12T22:06:32.783Z,33.87
2022-09-12T22:09:17.528Z,34.04
2022-09-12T22:12:02.435Z,34.53
2022-09-12T22:14:47.114Z,34.13
2022-09-12T22:17:31.935Z,34.55
2022-09-12T22:20:16.671Z,34.53
2022-09-12T22:23:01.596Z,34.87
2022-09-12T22:25:46.318Z,35.06
2022-09-12T22:28:31.176Z,35.19
2022-09-12T22:31:15.879Z,34.38
2022-09-12T22:34:00.530Z,34.67
2022-09-12T22:36:45.267Z,34.74
2022-09-12T22:39:30.104Z,34.48
2022-09-12T22:42:14.800Z,34.19
2022-09-12T22:44:59.539Z,34.43
2022-09-12T22:47:44.300Z,34.20
2022-09-12T22:50:29.128Z,34.18
2022-09-12T22:53:13.867Z,34.40
2022-09-12T22:55:58.581Z,34.23
2022-09-12T22:58:43.359Z,34.38
2022-09-12T23:01:28.111Z,34.20
2022-09-12T23:04:12.882Z,34.33
2022-09-12T23:06:57.584Z,34.36
2022-09-12T23:09:42.226Z,34.96
2022-09-12T23:12:27.045Z,35.10
2022-09-12T23:15:11.752Z,35.34
2022-09-12T23:17:56.574Z,35.56
2022-09-12T23:20:41.176Z,35.61
2022-09-12T23:23:26.094Z,35.57
2022-09-12T23:26:10.791Z,35.35
2022-09-12T23:28:55.587Z,35.44
2022-09-12T23:31:40.391Z,35.59
2022-09-12T23:34:25.103Z,35.07
2022-09-12T23:37:09.853Z,35.38
2022-09-12T23:39:54.558Z,34.99
2022-09-12T23:42:39.484Z,35.20
2022-09-12T23:45:24.305Z,35.15
2022-09-12T23:48:08.959Z,35.42
2022-09-12T23:50:53.644Z,35.24
2022-09-12T23:53:38.461Z,34.73
2022-09-12T23:56:23.182Z,34.34
2022-09-12T23:59:07.986Z,34.46
